TNCA/AUA METAR and TAF weather

Enter ICAO airport designator
Station Type Date Time Source
TNCA METAR 2019/06/18 04:00 UTC NOAA

TNCA 180400Z 10020KT 9999 FEW017 28/24 Q1014 NOSIG


Station Type Date Time Source
TNCA Decoded METAR 2019/06/18 04:00 UTC NOAA

Queen Beatrix Airport, Aruba (TNCA) 12-30N 070-01W 33M
Jun 18, 2019 - 12:00 AM EDT / 2019.06.18 0400 UTC
Wind: from the E (100 degrees) at 23 MPH (20 KT):0
Visibility: greater than 7 mile(s):0
Sky conditions: mostly clear
Temperature: 82 F (28 C)
Dew Point: 75 F (24 C)
Relative Humidity: 78%
Pressure (altimeter): 29.94 in. Hg (1014 hPa)
ob: TNCA 180400Z 10020KT 9999 FEW017 28/24 Q1014 NOSIG
cycle: 4

Station Type Date Time Source
TNCA TAF 2019/06/18 00:03 UTC NOAA

TAF TAF TNCA 172200Z 1800/1824 09021KT 9999 SCT020 PROB40
TEMPO 1804/1816 09022G33KT 5000 SHRA BKN015

Example: see airport list